Time;durP1;ratioP1;P1;durP2;ratioP2;P2;SDS_P1;SDS_P2;PMS_P1;PMS_P2;Temp;Humidity;BMP_temperature;BMP_pressure;BME280_temperature;BME280_humidity;BME280_pressure;Samples;Min_cycle;Max_cycle;Signal;HPM_P1;HPM_P2
2021/11/02 00:02:17;;;;;;;3.08;1.95;;;;;;;7.70;68.94;98917.28;8716293;33;20447;-76
2021/11/02 00:07:22;;;;;;;4.03;2.60;;;;;;;7.68;68.85;98925.44;8692995;33;20156;-76
2021/11/02 00:12:25;;;;;;;4.32;2.28;;;;;;;7.67;68.74;98929.09;8716889;33;20199;-76
2021/11/02 00:17:30;;;;;;;7.07;2.47;;;;;;;7.62;69.21;98923.31;8716525;33;20727;-76
2021/11/02 00:22:36;;;;;;;5.20;2.50;;;;;;;7.55;69.23;98921.38;8717248;33;20198;-77
2021/11/02 00:27:41;;;;;;;3.80;2.25;;;;;;;7.52;69.49;98914.47;8716226;33;20845;-76
2021/11/02 00:32:48;;;;;;;2.95;2.28;;;;;;;7.49;69.34;98915.59;8692807;33;20225;-76
2021/11/02 00:37:53;;;;;;;5.28;2.50;;;;;;;7.42;69.75;98917.13;8717050;33;20176;-76
2021/11/02 00:42:59;;;;;;;11.85;4.00;;;;;;;7.42;69.88;98914.47;8716151;33;20233;-76
2021/11/02 00:48:07;;;;;;;4.88;2.30;;;;;;;7.44;69.83;98906.31;8716016;33;20159;-76
2021/11/02 00:53:13;;;;;;;3.83;2.38;;;;;;;7.44;69.92;98903.66;8715521;33;20304;-76
2021/11/02 00:58:16;;;;;;;4.07;2.10;;;;;;;7.37;70.07;98902.50;8715869;33;20191;-76
2021/11/02 01:03:20;;;;;;;5.00;2.05;;;;;;;7.41;70.30;98895.91;8715364;33;20190;-76
2021/11/02 01:08:24;;;;;;;2.45;1.73;;;;;;;7.48;69.68;98881.00;8691087;33;20274;-76
2021/11/02 01:13:28;;;;;;;3.53;2.00;;;;;;;7.49;69.81;98893.38;8690238;33;20242;-76
2021/11/02 01:18:33;;;;;;;2.95;2.42;;;;;;;7.51;70.06;98883.38;8714916;33;20988;-75
2021/11/02 01:23:38;;;;;;;3.70;2.00;;;;;;;7.60;69.78;98876.38;8643759;33;20244;-76
2021/11/02 01:28:41;;;;;;;4.88;2.03;;;;;;;7.62;69.46;98879.72;8715295;33;20899;-76
2021/11/02 01:33:44;;;;;;;8.23;2.90;;;;;;;7.62;69.62;98877.88;8713859;33;20694;-76
2021/11/02 01:38:49;;;;;;;5.57;2.20;;;;;;;7.48;70.04;98871.16;8689748;33;20978;-76
2021/11/02 01:43:53;;;;;;;4.95;2.17;;;;;;;7.41;70.40;98872.72;8689107;33;20183;-76
2021/11/02 01:49:01;;;;;;;5.28;2.72;;;;;;;7.27;70.92;98882.00;8689387;33;20908;-76
2021/11/02 01:54:08;;;;;;;4.50;2.60;;;;;;;7.19;71.40;98881.84;8689584;33;20237;-76
2021/11/02 01:59:15;;;;;;;5.10;2.58;;;;;;;7.16;71.76;98884.81;8690236;33;20303;-76
2021/11/02 02:04:40;;;;;;;3.03;2.22;;;;;;;7.14;71.39;98880.56;8713936;33;20444;-76
2021/11/02 02:09:55;;;;;;;4.20;2.05;;;;;;;7.20;71.40;98875.50;8690140;33;20238;-76
2021/11/02 02:15:13;;;;;;;2.97;2.17;;;;;;;7.13;71.52;98877.06;8689283;33;20206;-76
2021/11/02 02:20:31;;;;;;;4.55;2.05;;;;;;;7.00;72.00;98863.13;8689564;33;20749;-76
2021/11/02 02:25:53;;;;;;;4.10;2.42;;;;;;;7.05;71.84;98863.56;8704062;33;20197;-76
2021/11/02 02:31:05;;;;;;;7.93;2.42;;;;;;;7.00;72.39;98858.63;8660551;33;20604;-76
2021/11/02 02:36:17;;;;;;;3.50;2.17;;;;;;;7.03;72.30;98855.69;8695008;33;20194;-75
2021/11/02 02:41:35;;;;;;;2.63;2.03;;;;;;;6.98;72.56;98843.72;8683877;33;20286;-76
2021/11/02 02:46:41;;;;;;;3.15;2.40;;;;;;;6.95;72.59;98838.69;8693840;33;21930;-76
2021/11/02 02:51:46;;;;;;;3.92;2.10;;;;;;;6.82;73.13;98837.06;8719238;33;20467;-76
2021/11/02 02:56:52;;;;;;;4.68;2.28;;;;;;;6.69;73.79;98835.63;8693433;33;21883;-76
2021/11/02 03:01:59;;;;;;;7.57;2.33;;;;;;;6.73;73.52;98829.91;8693805;33;21072;-76
2021/11/02 03:07:03;;;;;;;3.97;2.47;;;;;;;6.77;73.37;98830.47;8693817;33;20217;-76
2021/11/02 03:12:11;;;;;;;4.18;2.70;;;;;;;6.80;73.17;98844.38;8740627;33;20778;-76
2021/11/02 03:17:23;;;;;;;3.80;2.95;;;;;;;6.81;73.07;98847.91;8693323;33;20476;-75
2021/11/02 03:44:32;;;;;;;4.65;2.80;;;;;;;7.14;72.38;98846.69;8693066;33;20191;-75
2021/11/02 03:49:42;;;;;;;4.47;2.80;;;;;;;7.13;72.48;98852.16;8692821;33;20194;-76
2021/11/02 03:54:49;;;;;;;4.85;2.70;;;;;;;6.99;72.74;98846.28;8692232;33;21016;-76
2021/11/02 05:54:05;;;;;;;4.93;3.80;;;;;;;6.84;75.10;98866.31;8641845;33;20709;-77
2021/11/02 05:59:26;;;;;;;9.88;4.88;;;;;;;6.79;74.85;98871.19;8656303;33;20721;-76
2021/11/02 06:09:56;;;;;;;7.40;4.78;;;;;;;6.72;75.54;98867.38;8645791;33;20428;-77
2021/11/02 06:31:26;;;;;;;10.10;6.03;;;;;;;6.67;76.08;98866.97;8703393;33;21799;-76
2021/11/02 06:36:55;;;;;;;8.95;4.93;;;;;;;6.73;76.04;98864.59;8656903;33;20216;-77
2021/11/02 07:20:25;;;;;;;14.38;6.43;;;;;;;6.91;76.64;98898.66;8719387;33;20902;-75
2021/11/02 07:25:35;;;;;;;9.80;6.00;;;;;;;6.81;76.42;98903.94;8719229;33;20621;-76
2021/11/02 08:46:32;;;;;;;10.13;5.47;;;;;;;9.84;66.68;98902.84;8717361;33;20155;-75
2021/11/02 08:51:36;;;;;;;11.48;5.65;;;;;;;9.94;66.17;98899.09;8703945;33;20183;-76
2021/11/02 08:56:40;;;;;;;8.95;5.10;;;;;;;10.94;63.63;98909.38;8715256;33;20190;-76
2021/11/02 09:01:47;;;;;;;9.02;5.20;;;;;;;12.09;59.96;98894.25;8715765;33;20291;-76
2021/11/02 09:06:52;;;;;;;8.75;5.30;;;;;;;12.18;58.95;98887.84;8715644;33;20210;-76
2021/11/02 09:11:57;;;;;;;6.75;4.35;;;;;;;11.65;60.02;98900.81;8716866;33;20211;-76
2021/11/02 09:17:01;;;;;;;6.30;4.95;;;;;;;10.77;62.70;98893.19;8691502;33;20238;-76
2021/11/02 09:22:08;;;;;;;8.25;4.90;;;;;;;10.53;64.02;98901.13;8717766;33;20910;-75
2021/11/02 09:27:15;;;;;;;7.13;3.72;;;;;;;10.78;63.15;98892.22;8718442;33;20236;-75
2021/11/02 09:32:18;;;;;;;7.90;4.32;;;;;;;10.46;63.03;98894.75;8716128;33;20433;-75
2021/11/02 09:37:32;;;;;;;6.68;4.13;;;;;;;9.95;64.09;98889.22;8716193;33;20940;-76
2021/11/02 09:43:22;;;;;;;5.68;4.10;;;;;;;9.88;65.04;98893.53;8690572;33;20241;-75
2021/11/02 09:49:14;;;;;;;8.43;5.28;;;;;;;9.93;64.23;98899.28;8714951;33;20794;-75
2021/11/02 09:55:06;;;;;;;7.50;4.45;;;;;;;10.04;64.97;98892.78;8685650;33;20242;-75
2021/11/02 10:00:19;;;;;;;5.40;4.53;;;;;;;10.65;62.32;98896.34;8697861;33;20240;-74
2021/11/02 10:05:48;;;;;;;4.85;3.13;;;;;;;10.37;63.45;98905.44;8715717;33;20204;-75
2021/11/02 10:11:03;;;;;;;4.97;3.38;;;;;;;10.64;62.30;98902.72;8715517;33;20223;-75
2021/11/02 10:16:22;;;;;;;5.75;3.60;;;;;;;10.10;62.70;98895.72;8715787;33;22317;-75
2021/11/02 10:22:05;;;;;;;4.53;3.30;;;;;;;10.75;62.66;98887.16;8694053;33;20196;-75
2021/11/02 10:27:33;;;;;;;4.38;3.50;;;;;;;12.09;57.49;98892.38;8715254;33;21038;-75
2021/11/02 10:32:43;;;;;;;4.13;3.50;;;;;;;11.60;57.38;98887.06;8713157;33;20156;-75
2021/11/02 10:38:01;;;;;;;6.07;4.00;;;;;;;11.96;57.10;98875.94;8712469;33;20180;-74
2021/11/02 10:43:37;;;;;;;6.18;3.78;;;;;;;12.47;56.01;98876.53;8677062;33;20253;-75
2021/11/02 10:48:47;;;;;;;3.50;2.92;;;;;;;11.87;56.34;98876.94;8720283;33;20447;-74
2021/11/02 10:53:59;;;;;;;2.63;2.35;;;;;;;11.48;57.00;98869.56;8695011;33;20233;-74
2021/11/02 10:59:07;;;;;;;4.90;3.00;;;;;;;11.83;56.69;98868.38;8698556;33;21186;-74
2021/11/02 11:04:14;;;;;;;5.95;3.17;;;;;;;11.44;57.78;98866.38;8734791;33;20187;-75
2021/11/02 11:09:20;;;;;;;4.15;2.55;;;;;;;11.45;57.74;98868.03;8721574;33;20222;-75
2021/11/02 11:14:31;;;;;;;7.22;3.00;;;;;;;12.07;56.63;98861.31;8718930;33;20599;-74
2021/11/02 11:19:47;;;;;;;7.18;3.03;;;;;;;12.74;55.65;98869.84;8719378;33;20271;-75
2021/11/02 11:25:00;;;;;;;4.22;3.28;;;;;;;14.13;51.94;98860.78;8716050;33;20224;-75
2021/11/02 11:30:07;;;;;;;6.38;3.13;;;;;;;15.24;48.32;98847.28;8718998;33;20195;-75
2021/11/02 11:35:12;;;;;;;6.10;3.53;;;;;;;14.69;49.22;98846.00;8719144;33;20160;-75
2021/11/02 11:40:18;;;;;;;4.72;3.30;;;;;;;13.43;51.57;98859.19;8718893;33;20309;-75
2021/11/02 11:45:24;;;;;;;4.53;3.55;;;;;;;11.54;56.81;98857.28;8718096;33;20225;-74
2021/11/02 11:50:29;;;;;;;6.43;3.60;;;;;;;11.42;58.23;98848.72;8718707;33;20179;-75
2021/11/02 11:55:34;;;;;;;5.70;3.50;;;;;;;12.74;55.04;98845.59;8716866;33;20180;-74
2021/11/02 12:00:41;;;;;;;4.78;3.33;;;;;;;11.90;55.96;98844.31;8718312;33;20751;-75
2021/11/02 12:05:47;;;;;;;4.50;3.38;;;;;;;11.19;58.65;98857.44;8693447;33;20188;-74
2021/11/02 12:10:53;;;;;;;6.05;3.72;;;;;;;11.03;59.27;98860.91;8718437;33;20214;-75
2021/11/02 12:16:10;;;;;;;6.43;3.38;;;;;;;12.05;58.34;98855.25;8717997;33;20536;-74
2021/11/02 12:21:23;;;;;;;6.15;4.20;;;;;;;15.22;48.16;98835.81;8693492;33;20187;-75
2021/11/02 12:26:46;;;;;;;6.43;3.90;;;;;;;15.07;47.50;98833.16;8717670;33;20183;-74
2021/11/02 12:31:59;;;;;;;4.22;3.80;;;;;;;14.56;48.74;98827.75;8717819;33;21193;-75
2021/11/02 12:37:08;;;;;;;6.60;4.30;;;;;;;12.62;52.97;98835.41;8717474;33;20613;-75
2021/11/02 12:42:16;;;;;;;8.13;4.57;;;;;;;12.35;53.86;98840.22;8717620;33;20235;-75
2021/11/02 12:47:23;;;;;;;6.72;5.00;;;;;;;12.11;55.05;98841.94;8692602;33;20213;-75
2021/11/02 12:52:31;;;;;;;6.00;3.97;;;;;;;12.85;52.21;98836.28;8717429;33;20195;-75
2021/11/02 12:57:37;;;;;;;5.88;4.03;;;;;;;12.39;54.17;98836.16;8716738;33;20630;-75
2021/11/02 13:02:42;;;;;;;7.68;4.15;;;;;;;13.82;51.50;98831.25;8717903;33;20620;-75
2021/11/02 13:08:06;;;;;;;6.28;3.50;;;;;;;13.55;51.51;98829.97;8717223;33;20527;-75
2021/11/02 13:13:13;;;;;;;4.43;2.80;;;;;;;12.41;53.12;98834.13;8717081;33;20436;-75
2021/11/02 13:18:30;;;;;;;4.97;3.20;;;;;;;11.39;56.84;98828.38;8717026;33;20199;-75
2021/11/02 13:23:44;;;;;;;3.63;3.22;;;;;;;11.57;57.03;98844.34;8717132;33;20234;-75
2021/11/02 13:28:51;;;;;;;6.13;3.90;;;;;;;12.47;54.16;98840.69;8716829;33;21616;-75
2021/11/02 13:34:01;;;;;;;7.53;3.20;;;;;;;12.31;54.30;98841.56;8716327;33;20187;-75
2021/11/02 13:39:08;;;;;;;3.20;2.90;;;;;;;12.95;53.02;98842.31;8716611;33;20920;-75
2021/11/02 13:44:15;;;;;;;5.47;3.20;;;;;;;12.44;55.72;98836.47;8711701;33;20368;-74
2021/11/02 13:49:20;;;;;;;5.32;3.45;;;;;;;12.44;54.55;98838.34;8716502;33;20188;-74
2021/11/02 13:54:26;;;;;;;5.30;3.17;;;;;;;11.56;56.60;98834.59;8715846;33;21455;-75
2021/11/02 13:59:29;;;;;;;4.60;3.50;;;;;;;11.10;58.27;98841.41;8714928;33;20596;-74
2021/11/02 14:04:37;;;;;;;7.25;3.80;;;;;;;12.41;56.34;98841.38;8710620;33;20183;-75
2021/11/02 14:09:46;;;;;;;4.45;3.08;;;;;;;12.54;53.79;98838.97;8712148;33;21378;-75
2021/11/02 14:14:49;;;;;;;8.27;4.18;;;;;;;11.69;56.42;98829.56;8714448;33;20180;-74
2021/11/02 14:19:54;;;;;;;6.13;3.63;;;;;;;11.49;57.40;98836.28;8714370;33;20201;-75
2021/11/02 14:25:11;;;;;;;11.55;3.67;;;;;;;11.14;58.55;98840.97;8713859;33;20203;-75
2021/11/02 14:30:23;;;;;;;4.15;3.25;;;;;;;11.27;59.33;98838.63;8690229;33;20195;-75
2021/11/02 14:35:55;;;;;;;5.50;3.67;;;;;;;11.24;59.13;98841.66;8689816;33;20214;-74
2021/11/02 14:41:22;;;;;;;5.18;3.53;;;;;;;11.07;59.28;98842.59;8689832;33;20206;-75
2021/11/02 14:46:33;;;;;;;7.18;3.65;;;;;;;11.13;59.53;98841.94;8690194;33;21011;-75
2021/11/02 14:51:36;;;;;;;6.82;3.63;;;;;;;10.90;59.59;98855.16;8714014;33;20187;-74
2021/11/02 14:56:40;;;;;;;5.20;3.85;;;;;;;10.59;60.22;98850.34;8713781;33;20244;-75
2021/11/02 15:02:07;;;;;;;10.70;4.10;;;;;;;10.49;61.33;98846.09;8713774;33;20437;-75
2021/11/02 15:07:12;;;;;;;6.88;4.07;;;;;;;10.33;63.38;98847.69;8708940;33;20191;-75
2021/11/02 15:12:17;;;;;;;5.97;4.00;;;;;;;10.15;64.39;98841.59;8689787;33;20182;-75
2021/11/02 15:17:20;;;;;;;8.20;4.13;;;;;;;10.08;63.62;98845.88;8713647;33;20325;-75
2021/11/02 15:22:30;;;;;;;8.40;3.80;;;;;;;10.07;62.89;98842.38;8714360;33;20209;-74
2021/11/02 15:27:37;;;;;;;7.60;4.55;;;;;;;10.16;62.65;98838.72;8714142;33;21192;-75
2021/11/02 15:32:42;;;;;;;8.27;4.93;;;;;;;10.21;62.57;98840.94;8719415;33;20171;-75
2021/11/02 15:37:48;;;;;;;8.73;4.53;;;;;;;10.21;62.50;98835.56;8719247;33;20460;-74
2021/11/02 15:42:55;;;;;;;7.15;4.63;;;;;;;10.12;62.68;98853.47;8719404;33;20193;-74
2021/11/02 15:48:16;;;;;;;7.53;3.90;;;;;;;9.90;64.05;98848.63;8710249;33;20691;-75
2021/11/02 15:53:21;;;;;;;5.45;3.92;;;;;;;9.70;65.01;98843.41;8709597;33;20598;-75
2021/11/02 15:58:28;;;;;;;6.00;4.07;;;;;;;9.57;65.36;98847.50;8716592;33;20961;-75
2021/11/02 16:03:32;;;;;;;7.95;4.47;;;;;;;9.47;65.48;98842.25;8715799;33;20193;-76
2021/11/02 16:08:35;;;;;;;7.25;3.92;;;;;;;9.39;65.38;98843.00;8720149;33;20191;-75
2021/11/02 16:13:41;;;;;;;9.30;4.80;;;;;;;9.31;65.52;98842.94;8719248;33;20930;-75
2021/11/02 16:18:45;;;;;;;7.55;4.88;;;;;;;9.12;66.40;98849.28;8716994;33;20190;-74
2021/11/02 16:23:50;;;;;;;6.60;4.35;;;;;;;8.96;66.90;98847.28;8701135;33;20265;-75
2021/11/02 16:28:58;;;;;;;7.28;4.88;;;;;;;8.97;66.88;98840.09;8718643;33;20259;-75
2021/11/02 16:34:19;;;;;;;5.88;3.80;;;;;;;8.92;66.21;98850.44;8717770;33;20218;-75
2021/11/02 16:39:24;;;;;;;6.35;3.67;;;;;;;8.91;66.20;98846.88;8693680;33;20562;-74
2021/11/02 16:44:34;;;;;;;6.03;3.38;;;;;;;8.86;65.94;98846.53;8736920;33;20194;-74
2021/11/02 16:49:39;;;;;;;4.80;4.03;;;;;;;8.77;65.94;98858.13;8720702;33;20623;-77
2021/11/02 16:54:45;;;;;;;5.75;3.35;;;;;;;8.71;66.14;98850.69;8717690;33;21491;-77
2021/11/02 16:59:53;;;;;;;3.65;3.08;;;;;;;8.72;65.63;98855.03;8717648;33;20592;-76
2021/11/02 17:05:17;;;;;;;5.65;3.20;;;;;;;8.76;65.14;98859.13;8714508;33;20210;-76
2021/11/02 17:10:37;;;;;;;6.07;3.38;;;;;;;8.75;65.06;98865.44;8717040;33;20438;-75
2021/11/02 17:15:50;;;;;;;5.80;3.38;;;;;;;8.75;64.85;98871.66;8717397;33;20551;-76
2021/11/02 17:21:02;;;;;;;4.97;3.00;;;;;;;8.79;64.78;98866.84;8719266;33;20183;-77
2021/11/02 17:26:08;;;;;;;5.53;3.55;;;;;;;8.73;64.45;98873.63;8720303;33;20191;-75
2021/11/02 17:31:16;;;;;;;6.25;3.83;;;;;;;8.68;64.48;98869.72;8717852;33;20241;-75
2021/11/02 17:36:22;;;;;;;10.02;4.80;;;;;;;8.56;65.19;98874.44;8690908;33;20204;-77
2021/11/02 17:41:25;;;;;;;5.93;3.85;;;;;;;8.56;64.59;98869.94;8692531;33;20888;-77
2021/11/02 17:46:30;;;;;;;4.00;3.50;;;;;;;8.55;64.57;98873.56;8738135;33;20464;-77
2021/11/02 17:51:34;;;;;;;7.57;3.70;;;;;;;8.52;64.86;98879.22;8714540;33;21360;-76
2021/11/02 17:56:38;;;;;;;6.65;3.65;;;;;;;8.55;65.21;98884.28;8716189;33;20621;-76
2021/11/02 18:01:46;;;;;;;4.93;3.47;;;;;;;8.60;64.72;98891.88;8714465;33;20938;-77
2021/11/02 18:06:50;;;;;;;5.90;3.20;;;;;;;8.60;64.58;98899.91;8691408;33;20173;-75
2021/11/02 18:11:54;;;;;;;3.95;3.00;;;;;;;8.60;64.63;98906.09;8716314;33;20197;-77
2021/11/02 18:16:59;;;;;;;4.95;3.05;;;;;;;8.49;64.85;98910.81;8690917;33;20252;-77
2021/11/02 18:22:04;;;;;;;5.93;3.03;;;;;;;8.52;64.74;98900.63;8715075;33;20218;-77
2021/11/02 18:27:08;;;;;;;4.78;2.45;;;;;;;8.59;64.95;98895.56;8714556;33;20210;-77
2021/11/02 18:32:14;;;;;;;4.47;2.55;;;;;;;8.63;64.77;98896.09;8690062;33;20551;-76
2021/11/02 18:37:19;;;;;;;4.75;2.85;;;;;;;8.63;65.13;98904.13;8688589;33;20259;-76
2021/11/02 18:42:23;;;;;;;5.15;2.80;;;;;;;8.65;65.03;98900.31;8714185;33;20722;-76
2021/11/02 18:47:28;;;;;;;4.50;2.90;;;;;;;8.57;65.34;98898.38;8690169;33;20533;-77
2021/11/02 18:52:31;;;;;;;4.90;3.40;;;;;;;8.56;65.71;98907.41;8718941;33;20278;-77
2021/11/02 18:57:35;;;;;;;7.90;3.55;;;;;;;8.56;65.94;98903.88;8714565;33;20598;-77
2021/11/02 19:02:40;;;;;;;7.03;3.50;;;;;;;8.51;66.16;98908.84;8714364;33;20328;-76
2021/11/02 19:07:44;;;;;;;6.30;3.15;;;;;;;8.42;66.44;98909.66;8719672;33;21611;-75
2021/11/02 19:12:47;;;;;;;3.67;2.88;;;;;;;8.33;67.03;98908.72;8719494;33;21599;-77
2021/11/02 19:17:51;;;;;;;2.67;2.47;;;;;;;8.27;67.27;98912.81;8717732;33;20190;-76
2021/11/02 19:22:54;;;;;;;4.20;2.92;;;;;;;8.10;67.96;98909.06;8715374;33;20194;-75
2021/11/02 19:27:57;;;;;;;6.35;2.85;;;;;;;7.99;68.56;98919.09;8718702;33;20140;-77
2021/11/02 19:33:03;;;;;;;4.90;3.00;;;;;;;7.91;68.66;98922.47;8681171;33;20170;-76
2021/11/02 19:38:07;;;;;;;5.30;3.05;;;;;;;7.88;68.95;98939.63;8720203;33;21809;-76
2021/11/02 19:43:11;;;;;;;4.63;3.15;;;;;;;7.89;69.03;98935.13;8719015;33;20269;-76
2021/11/02 19:48:16;;;;;;;4.80;3.50;;;;;;;7.89;68.91;98933.28;8694055;33;20530;-76
2021/11/02 19:53:21;;;;;;;6.82;3.53;;;;;;;7.88;69.01;98944.97;8694904;33;20194;-76
2021/11/02 19:58:26;;;;;;;4.22;3.00;;;;;;;7.86;68.88;98957.63;8721908;33;20201;-77
2021/11/02 20:03:30;;;;;;;7.00;3.10;;;;;;;7.94;68.98;98952.44;8719968;33;20190;-77
2021/11/02 20:08:38;;;;;;;4.60;2.78;;;;;;;7.99;68.90;98961.88;8725763;33;20459;-75
2021/11/02 20:13:46;;;;;;;4.32;2.80;;;;;;;7.95;68.79;98955.94;8722262;33;20501;-75
2021/11/02 20:18:55;;;;;;;3.55;2.88;;;;;;;7.99;68.63;98957.34;8718810;33;21533;-77
2021/11/02 20:23:59;;;;;;;5.75;3.28;;;;;;;8.12;68.44;98965.94;8707060;33;21634;-77
2021/11/02 20:29:04;;;;;;;5.53;3.22;;;;;;;8.16;68.67;98958.44;8721078;33;20182;-77
2021/11/02 20:34:09;;;;;;;3.53;2.90;;;;;;;8.06;68.62;98962.97;8720830;33;20316;-77
2021/11/02 20:39:30;;;;;;;4.85;3.97;;;;;;;8.11;68.88;98974.91;8697790;33;21491;-77
2021/11/02 20:44:35;;;;;;;5.03;3.45;;;;;;;7.99;69.11;98986.78;8722861;33;20225;-78
2021/11/02 20:49:46;;;;;;;7.20;2.85;;;;;;;8.04;69.08;98981.00;8699842;33;20187;-78
2021/11/02 20:54:50;;;;;;;7.63;3.38;;;;;;;7.90;70.16;98984.97;8717817;33;20232;-76
2021/11/02 20:59:55;;;;;;;7.00;4.10;;;;;;;7.79;70.67;98993.97;8716528;33;20175;-76
2021/11/02 21:05:04;;;;;;;5.93;4.15;;;;;;;7.84;70.56;98999.69;8715053;33;20144;-76
2021/11/02 21:10:11;;;;;;;5.97;4.00;;;;;;;7.78;70.55;99004.78;8692853;33;20198;-75
2021/11/02 21:15:17;;;;;;;7.60;4.40;;;;;;;7.98;70.02;99003.81;8716279;33;20189;-77
2021/11/02 21:20:24;;;;;;;8.88;5.18;;;;;;;7.90;70.36;99004.50;8717889;33;20633;-77
2021/11/02 21:25:29;;;;;;;8.82;5.65;;;;;;;7.84;70.79;99006.88;8714493;33;20268;-77
2021/11/02 21:30:33;;;;;;;14.63;8.43;;;;;;;7.55;71.48;99002.38;8692311;33;20648;-77
2021/11/02 21:35:39;;;;;;;15.80;9.50;;;;;;;7.64;71.35;99001.53;8729346;33;20194;-76
2021/11/02 21:40:44;;;;;;;15.50;8.85;;;;;;;7.36;71.89;99013.88;8721323;33;20177;-76
2021/11/02 21:45:51;;;;;;;17.02;8.75;;;;;;;7.43;72.08;99009.69;8715400;33;20187;-76
2021/11/02 21:50:56;;;;;;;16.80;9.13;;;;;;;7.52;71.66;99015.19;8727080;33;20264;-77
2021/11/02 21:56:03;;;;;;;17.00;9.40;;;;;;;7.29;72.59;99012.72;8717105;33;20183;-76
2021/11/02 22:01:08;;;;;;;15.95;8.98;;;;;;;7.00;72.54;99018.81;8717825;33;20962;-77
2021/11/02 22:06:13;;;;;;;21.90;10.35;;;;;;;6.88;73.00;99017.22;8716596;33;20252;-77
2021/11/02 22:11:17;;;;;;;16.80;9.55;;;;;;;7.04;72.54;99022.06;8716190;33;20276;-77
2021/11/02 22:16:20;;;;;;;21.48;10.18;;;;;;;6.99;72.72;99018.94;8712403;33;20214;-77
2021/11/02 22:21:25;;;;;;;23.90;11.07;;;;;;;6.90;73.14;99023.25;8716262;33;20270;-76
2021/11/02 22:26:28;;;;;;;21.85;11.30;;;;;;;6.97;73.11;99020.91;8691141;33;20190;-77
2021/11/02 22:31:32;;;;;;;22.13;10.38;;;;;;;6.79;73.81;99010.81;8744494;33;20259;-76
2021/11/02 22:36:36;;;;;;;23.02;10.52;;;;;;;6.87;73.43;99012.84;8725199;33;20531;-77
2021/11/02 22:41:41;;;;;;;25.23;12.15;;;;;;;6.73;74.17;99005.19;8723211;33;20159;-76
2021/11/02 22:46:44;;;;;;;22.98;11.82;;;;;;;6.74;74.20;99010.38;8722660;33;20148;-77
2021/11/02 22:51:52;;;;;;;23.33;10.95;;;;;;;6.62;74.49;99017.63;8722970;33;20671;-76
2021/11/02 22:56:55;;;;;;;21.95;11.05;;;;;;;6.58;74.80;99008.22;8722165;33;20498;-77
2021/11/02 23:01:59;;;;;;;22.55;11.23;;;;;;;6.54;75.13;99020.09;8722766;33;20664;-77
2021/11/02 23:07:04;;;;;;;24.95;13.02;;;;;;;6.52;75.17;99007.88;8698518;33;20452;-76
2021/11/02 23:12:09;;;;;;;24.85;12.50;;;;;;;6.46;75.57;99008.41;8724074;33;20271;-77
2021/11/02 23:17:12;;;;;;;25.75;12.90;;;;;;;6.42;75.34;98994.50;8743671;33;20785;-76
2021/11/02 23:22:37;;;;;;;24.98;12.95;;;;;;;6.39;75.71;99002.78;8721935;33;20527;-78
2021/11/02 23:27:41;;;;;;;23.83;12.10;;;;;;;6.28;76.21;98998.34;8722361;33;20543;-77
2021/11/02 23:32:46;;;;;;;23.85;12.65;;;;;;;6.30;75.79;99006.19;8697786;33;20209;-77
2021/11/02 23:37:51;;;;;;;26.27;12.77;;;;;;;6.11;76.16;99004.25;8724165;33;20441;-76
2021/11/02 23:42:54;;;;;;;24.98;12.63;;;;;;;5.99;76.60;99002.63;8723697;33;20491;-77
2021/11/02 23:47:57;;;;;;;26.30;12.07;;;;;;;5.71;77.74;99007.59;8723110;33;20692;-76
2021/11/02 23:53:03;;;;;;;28.35;13.82;;;;;;;5.74;77.88;99007.34;8722331;33;20617;-77
2021/11/02 23:58:06;;;;;;;29.80;13.60;;;;;;;5.68;78.23;99005.19;8722441;33;20582;-76
